KAVXKSNA

Guest
Details From KAVX - Catalina
To KSNA - Orange County - John Wayne
Flight Number -
Tags generated
Created
Modified
Stats Distance 32 nm / 59 km
Max Altitude 2,400 ft / 732 m
Waypoints 3
Social Downloads 0
Likes 0
Share VATSIM

Download

Looking for another format? Having issues loading an existing format? Contact us
Advertisement - Login to hide

Notes

Basic altitude profile: - Ascent Rate: 2500ft/min - Ascent Speed: 250kts - Cruise Altitude: 35000ft - Cruise Speed: 420kts - Descent Rate: 1500ft/min - Descent Speed: 250kts Options: - Use NATs: yes - Use PACOTS: yes - Use low airways: yes - Use high airways: yes

Route

KAVX ALBAS KSNA

ID Type Via Altitude Latitude Longitude Leg Dist Tot Dist Heading (true) Name
O KAVX APT - 0 ft / 0 m 33.40466˚ -118.41588˚ - 0 nm - Catalina
ALBAS FIX - 2,400 ft / 732 m 33.59963˚ -118.07782˚ 20 nm 20 nm 55° / 55° -
O KSNA APT - 0 ft / 0 m 33.67611˚ -117.86764˚ 11 nm 32 nm 66° / 66° Orange County - John Wayne

Altitude Profile

Advertisement - Login to hide

KAVX

Details ICAO KAVX (AVX)
Name Catalina
Region United States
Timezone America/Los_Angeles (UTC-7.0)
Stats Elevation 1,601 ft / 488 m (AMSL)
Location 33.404656° -118.415880°
Runways 1
Magnetic Variation 11.864° E

METAR

KAVX 220351Z AUTO 24006KT 1/4SM HZ VV002 11/M01 A2989 RMK AO2 SLP120 T01111011 $

Decode

TAF

Not found

Departure Runways

ID Width Length Bearing (true) Bearing (mag) Surface Threshold Offset Overrun Length
04 59 ft / 18 m 3,127 ft / 953 m 54.93° 43.07° Asphalt 131 ft / 40 m 0 ft / 0 m
22 59 ft / 18 m 3,127 ft / 953 m 234.93° 223.07° Asphalt 62 ft / 19 m 0 ft / 0 m

KSNA

Details ICAO KSNA (SNA)
Name Orange County - John Wayne
Region United States
Timezone America/Los_Angeles (UTC-7.0)
Stats Elevation 56 ft / 17 m (AMSL)
Location 33.676112° -117.867636°
Runways 2
Magnetic Variation 11.808° E

METAR

KSNA 220353Z 00000KT 10SM OVC024 17/12 A2988 RMK AO2 SLP117 T01670117

Decode

TAF

TAF KSNA 212320Z 2200/2224 20008KT P6SM BKN025 BKN035 FM220300 VRB05KT P6SM SCT015 BKN025 FM222000 21010KT P6SM SCT025 BKN035

Decode

Destination Runways

ID Width Length Bearing (true) Bearing (mag) Surface Threshold Offset Overrun Length
01L 151 ft / 46 m 5,711 ft / 1,741 m 27.81° 16.00° Asphalt 0 ft / 0 m 1,050 ft / 320 m
01R 75 ft / 23 m 2,892 ft / 881 m 27.80° 15.99° Asphalt 0 ft / 0 m 400 ft / 122 m
19L 75 ft / 23 m 2,892 ft / 881 m 207.80° 195.99° Asphalt 0 ft / 0 m 151 ft / 46 m
19R 151 ft / 46 m 5,711 ft / 1,741 m 207.81° 196.00° Asphalt 0 ft / 0 m 194 ft / 59 m

Approach Navaids

Runway Type Ident Frequency Range Bearing (true) Bearing (mag) Slope Elevation
19R Localiser ISNA 111.75 MHz 18 nm / 33 km 207.80° 195.99° - 54 ft / 16 m (AMSL)
19R Localiser IOJW 108.30 MHz 18 nm / 33 km 195.00° 183.19° - 40 ft / 12 m (AMSL)
19R Glidescope ISNA 111.75 MHz 10 nm / 19 km 207.81° 196.00° 3.00° 43 ft / 13 m (AMSL)
19R DME IOJW 108.30 MHz 18 nm / 33 km - - - 40 ft / 12 m (AMSL)
19R DME ISNA 111.75 MHz 18 nm / 33 km - - - 68 ft / 21 m (AMSL)